createdAt,value
2023-04-15T00:02:20.063Z,11.65
2023-04-15T00:04:51.223Z,10.55
2023-04-15T00:07:21.776Z,10.43
2023-04-15T00:09:57.938Z,10.95
2023-04-15T00:12:29.071Z,10.95
2023-04-15T00:14:59.462Z,8.18
2023-04-15T00:17:30.086Z,9.85
2023-04-15T00:20:00.507Z,10.38
2023-04-15T00:22:31.028Z,10.23
2023-04-15T00:25:04.108Z,10.35
2023-04-15T00:27:34.452Z,10.77
2023-04-15T00:30:05.539Z,11.95
2023-04-15T00:32:36.202Z,10.60
2023-04-15T00:35:09.325Z,10.25
2023-04-15T00:37:39.940Z,10.13
2023-04-15T00:40:16.209Z,9.77
2023-04-15T00:42:47.056Z,10.85
2023-04-15T00:45:17.656Z,9.30
2023-04-15T00:47:49.858Z,8.98
2023-04-15T00:50:20.710Z,8.98
2023-04-15T00:52:51.108Z,10.13
2023-04-15T00:55:24.076Z,10.07
2023-04-15T00:57:59.982Z,9.70
2023-04-15T01:00:30.681Z,9.88
2023-04-15T01:03:01.148Z,10.20
2023-04-15T01:05:34.541Z,10.50
2023-04-15T01:08:04.916Z,10.38
2023-04-15T01:10:38.337Z,11.88
2023-04-15T01:13:10.348Z,10.03
2023-04-15T01:15:40.852Z,8.60
2023-04-15T01:18:11.603Z,9.48
2023-04-15T01:20:42.726Z,10.80
2023-04-15T01:23:13.484Z,9.48
2023-04-15T01:25:47.763Z,8.93
2023-04-15T01:28:18.401Z,11.77
2023-04-15T01:30:48.831Z,7.90
2023-04-15T01:33:19.293Z,9.38
2023-04-15T01:35:49.667Z,7.53
2023-04-15T01:38:20.094Z,8.98
2023-04-15T01:40:53.184Z,7.85
2023-04-15T01:43:23.507Z,7.37
2023-04-15T01:45:53.725Z,8.80
2023-04-15T01:48:24.298Z,7.22
2023-04-15T01:50:57.789Z,8.73
2023-04-15T01:53:28.529Z,7.10
2023-04-15T01:56:01.614Z,9.50
2023-04-15T01:58:35.302Z,7.78
2023-04-15T02:01:10.675Z,10.30
2023-04-15T02:03:41.600Z,6.40
2023-04-15T02:06:11.908Z,8.40
2023-04-15T02:08:42.439Z,11.90
2023-04-15T02:11:15.819Z,8.80
2023-04-15T02:13:46.698Z,8.07
2023-04-15T02:16:20.766Z,7.65
2023-04-15T02:18:52.291Z,7.63
2023-04-15T02:21:22.862Z,7.95
2023-04-15T02:23:54.255Z,8.35
2023-04-15T02:26:27.990Z,7.97
2023-04-15T02:28:58.714Z,10.02
2023-04-15T02:31:29.569Z,8.80
2023-04-15T02:34:00.474Z,8.07
2023-04-15T02:36:31.850Z,8.43
2023-04-15T02:39:03.333Z,7.63
2023-04-15T02:41:36.892Z,12.30
2023-04-15T02:44:11.302Z,8.48
2023-04-15T02:46:41.829Z,7.72
2023-04-15T02:49:12.189Z,9.65
2023-04-15T02:51:42.546Z,7.18
2023-04-15T02:54:13.489Z,8.50
2023-04-15T02:56:46.322Z,10.02
2023-04-15T02:59:16.691Z,11.00
2023-04-15T03:01:47.109Z,8.10
2023-04-15T03:04:17.578Z,10.50
2023-04-15T03:06:47.890Z,9.90
2023-04-15T03:09:18.221Z,10.23
2023-04-15T03:11:55.299Z,10.43
2023-04-15T03:14:26.055Z,10.68
2023-04-15T03:16:56.564Z,10.93
2023-04-15T03:19:26.959Z,11.15
2023-04-15T03:21:57.406Z,10.30
2023-04-15T03:24:29.362Z,11.05
2023-04-15T03:27:02.266Z,11.27
2023-04-15T03:29:32.498Z,11.98
2023-04-15T03:32:02.831Z,10.63
2023-04-15T03:34:33.073Z,11.70
2023-04-15T03:37:03.305Z,12.05
2023-04-15T03:39:33.686Z,12.40
2023-04-15T03:42:06.951Z,10.00
2023-04-15T03:44:37.431Z,10.45
2023-04-15T03:47:07.866Z,10.18
2023-04-15T03:49:39.266Z,10.45
2023-04-15T03:52:09.595Z,10.80
2023-04-15T03:54:40.334Z,11.07
2023-04-15T03:57:13.176Z,10.25
2023-04-15T03:59:43.512Z,9.68
2023-04-15T04:02:13.814Z,11.77
2023-04-15T04:04:44.674Z,10.50
2023-04-15T04:07:19.003Z,12.25
2023-04-15T04:09:49.412Z,11.90
2023-04-15T04:12:22.445Z,11.50
2023-04-15T04:14:52.724Z,10.77
2023-04-15T04:17:23.078Z,12.82
2023-04-15T04:19:53.410Z,12.50
2023-04-15T04:22:26.388Z,10.98
2023-04-15T04:24:59.658Z,11.65
2023-04-15T04:27:32.435Z,11.10
2023-04-15T04:30:02.873Z,11.77
2023-04-15T04:32:34.525Z,13.18
2023-04-15T04:35:05.224Z,10.13
2023-04-15T04:37:35.506Z,11.35
2023-04-15T04:40:05.981Z,10.80
2023-04-15T04:42:40.137Z,10.75
2023-04-15T04:45:11.610Z,11.82
2023-04-15T04:47:41.868Z,13.43
2023-04-15T04:50:12.770Z,11.55
2023-04-15T04:52:43.081Z,10.77
2023-04-15T04:55:16.235Z,9.93
2023-04-15T04:57:49.121Z,10.87
2023-04-15T05:00:21.543Z,10.68
2023-04-15T05:02:52.018Z,11.25
2023-04-15T05:05:22.621Z,10.35
2023-04-15T05:07:53.703Z,10.73
2023-04-15T05:10:24.023Z,12.90
2023-04-15T05:12:56.846Z,10.98
2023-04-15T05:15:27.985Z,9.88
2023-04-15T05:17:58.269Z,13.15
2023-04-15T05:20:28.586Z,9.15
2023-04-15T05:22:58.804Z,8.82
2023-04-15T05:25:29.194Z,8.77
2023-04-15T05:28:02.054Z,8.90
2023-04-15T05:30:32.700Z,9.10
2023-04-15T05:33:03.091Z,8.80
2023-04-15T05:35:33.398Z,8.15
2023-04-15T05:38:03.937Z,8.10
2023-04-15T05:40:34.739Z,7.65
2023-04-15T05:43:09.046Z,8.15
2023-04-15T05:45:39.356Z,8.80
2023-04-15T05:48:10.526Z,9.00
2023-04-15T05:50:43.852Z,8.60
2023-04-15T05:53:14.383Z,6.63
2023-04-15T05:55:44.856Z,9.68
2023-04-15T05:58:17.692Z,6.95
2023-04-15T06:00:48.072Z,7.78
2023-04-15T06:03:19.390Z,7.78
2023-04-15T06:05:50.115Z,6.45
2023-04-15T06:08:33.961Z,8.05
2023-04-15T06:11:05.276Z,6.15
2023-04-15T06:13:38.159Z,6.60
2023-04-15T06:16:09.509Z,7.50
2023-04-15T06:18:39.729Z,6.30
2023-04-15T06:21:10.185Z,6.93
2023-04-15T06:23:41.373Z,6.03
2023-04-15T06:26:12.141Z,6.47
2023-04-15T06:28:45.853Z,6.43
2023-04-15T06:31:16.256Z,6.93
2023-04-15T06:33:46.912Z,9.20
2023-04-15T06:36:17.199Z,8.77
2023-04-15T06:38:47.416Z,7.10
2023-04-15T06:41:18.291Z,6.80
2023-04-15T06:43:51.731Z,8.85
2023-04-15T06:46:22.487Z,6.72
2023-04-15T06:48:52.967Z,7.57
2023-04-15T06:51:26.547Z,8.05
2023-04-15T06:53:58.345Z,7.25
2023-04-15T06:56:28.792Z,7.53
2023-04-15T06:59:02.359Z,6.40
2023-04-15T07:01:32.974Z,6.82
2023-04-15T07:04:04.190Z,7.13
2023-04-15T07:06:36.070Z,6.80
2023-04-15T07:09:07.715Z,6.72
2023-04-15T07:11:43.409Z,8.13
2023-04-15T07:14:17.473Z,8.65
2023-04-15T07:16:50.311Z,7.93
2023-04-15T07:19:21.423Z,7.22
2023-04-15T07:21:54.669Z,8.48
2023-04-15T07:24:27.049Z,10.18
2023-04-15T07:26:59.474Z,7.80
2023-04-15T07:29:33.815Z,10.52
2023-04-15T07:32:04.131Z,8.30
2023-04-15T07:34:34.425Z,7.70
2023-04-15T07:37:04.782Z,8.23
2023-04-15T07:39:35.016Z,6.88
2023-04-15T07:42:05.639Z,11.10
2023-04-15T07:44:38.580Z,8.40
2023-04-15T07:47:09.543Z,8.67
2023-04-15T07:49:40.259Z,8.48
2023-04-15T07:52:11.758Z,8.27
2023-04-15T07:54:42.124Z,9.52
2023-04-15T07:57:12.506Z,6.65
2023-04-15T08:00:00.193Z,7.53
2023-04-15T08:02:32.031Z,7.40
2023-04-15T08:05:03.590Z,9.20
2023-04-15T08:07:34.234Z,9.05
2023-04-15T08:10:07.263Z,7.90
2023-04-15T08:12:37.690Z,7.10
2023-04-15T08:15:13.357Z,6.60
2023-04-15T08:17:43.967Z,7.75
2023-04-15T08:20:14.936Z,10.20
2023-04-15T08:22:45.353Z,6.75
2023-04-15T08:25:17.695Z,6.28
2023-04-15T08:27:48.025Z,7.25
2023-04-15T08:30:21.903Z,6.72
2023-04-15T08:35:23.191Z,9.43
2023-04-15T08:37:53.488Z,6.65
2023-04-15T08:40:26.146Z,6.13
2023-04-15T08:43:01.012Z,7.50
2023-04-15T08:45:34.429Z,6.50
2023-04-15T08:48:08.035Z,6.15
2023-04-15T08:50:38.352Z,6.40
2023-04-15T08:53:09.059Z,6.60
2023-04-15T08:55:49.365Z,9.40
2023-04-15T08:58:20.096Z,5.75
2023-04-15T09:00:53.208Z,7.18
2023-04-15T09:03:25.446Z,7.78
2023-04-15T09:05:56.789Z,5.10
2023-04-15T09:08:30.004Z,5.85
2023-04-15T09:11:00.329Z,5.60
2023-04-15T09:13:30.786Z,8.30
2023-04-15T09:16:05.273Z,7.15
2023-04-15T09:18:38.628Z,8.20
2023-04-15T09:21:12.633Z,7.22
2023-04-15T09:23:56.941Z,5.70
2023-04-15T09:26:37.651Z,6.40
2023-04-15T09:29:09.763Z,5.70
2023-04-15T09:31:43.811Z,7.97
2023-04-15T09:34:14.626Z,5.45
2023-04-15T09:37:00.133Z,6.80
2023-04-15T09:39:30.572Z,7.95
2023-04-15T09:42:24.545Z,5.80
2023-04-15T09:44:55.406Z,4.43
2023-04-15T09:47:34.178Z,7.38
2023-04-15T09:50:04.977Z,4.47
2023-04-15T09:52:35.579Z,5.07
2023-04-15T09:55:09.111Z,5.00
2023-04-15T09:57:41.482Z,4.25
2023-04-15T10:00:13.386Z,5.50
2023-04-15T10:02:47.392Z,4.70
2023-04-15T10:05:19.661Z,7.95
2023-04-15T10:07:50.364Z,6.30
2023-04-15T10:10:21.208Z,6.93
2023-04-15T10:12:54.611Z,6.65
2023-04-15T10:15:26.640Z,6.38
2023-04-15T10:18:05.594Z,6.05
2023-04-15T10:20:37.322Z,5.40
2023-04-15T10:23:09.894Z,5.68
2023-04-15T10:25:42.142Z,5.65
2023-04-15T10:28:12.840Z,6.68
2023-04-15T10:30:43.437Z,4.45
2023-04-15T10:33:17.565Z,5.90
2023-04-15T10:35:49.205Z,4.22
2023-04-15T10:38:34.749Z,4.22
2023-04-15T10:41:21.217Z,4.70
2023-04-15T10:43:53.836Z,5.30
2023-04-15T10:46:38.287Z,4.20
2023-04-15T10:49:17.930Z,4.38
2023-04-15T10:51:50.486Z,4.35
2023-04-15T10:54:36.549Z,5.80
2023-04-15T10:57:22.244Z,5.45
2023-04-15T11:00:13.841Z,5.25
2023-04-15T11:02:49.997Z,4.80
2023-04-15T11:05:24.279Z,5.60
2023-04-15T11:07:57.202Z,5.53
2023-04-15T11:10:58.341Z,5.05
2023-04-15T11:13:33.349Z,5.80
2023-04-15T11:16:05.618Z,5.05
2023-04-15T11:18:38.215Z,7.63
2023-04-15T11:24:37.687Z,4.45
2023-04-15T11:27:08.625Z,6.03
2023-04-15T11:29:41.694Z,5.57
2023-04-15T11:32:12.898Z,4.45
2023-04-15T11:34:43.175Z,4.32
2023-04-15T11:37:14.004Z,3.53
2023-04-15T11:39:47.006Z,6.10
2023-04-15T11:42:20.474Z,3.67
2023-04-15T11:44:50.821Z,4.35
2023-04-15T11:47:27.509Z,4.35
2023-04-15T11:49:57.996Z,4.07
2023-04-15T11:52:28.324Z,3.75
2023-04-15T11:55:10.877Z,3.90
2023-04-15T11:57:41.094Z,3.70
2023-04-15T12:00:12.983Z,4.13
2023-04-15T12:02:43.719Z,5.22
2023-04-15T12:05:14.970Z,4.20
2023-04-15T12:08:05.069Z,3.80
2023-04-15T12:10:38.017Z,4.15
2023-04-15T12:13:10.361Z,4.13
2023-04-15T12:15:42.152Z,3.78
2023-04-15T12:18:20.917Z,5.18
2023-04-15T12:20:51.259Z,3.80
2023-04-15T12:23:23.452Z,2.97
2023-04-15T12:25:57.796Z,4.60
2023-04-15T12:28:28.247Z,4.70
2023-04-15T12:30:59.676Z,4.25
2023-04-15T12:33:36.756Z,4.18
2023-04-15T12:36:08.527Z,6.10
2023-04-15T12:38:39.075Z,5.28
2023-04-15T12:41:12.290Z,6.03
2023-04-15T12:43:42.602Z,7.00
2023-04-15T12:46:12.805Z,7.97
2023-04-15T12:48:43.806Z,4.93
2023-04-15T12:51:14.732Z,4.82
2023-04-15T12:53:45.099Z,5.35
2023-04-15T12:56:18.398Z,6.72
2023-04-15T12:58:50.342Z,5.72
2023-04-15T13:01:21.209Z,5.90
2023-04-15T13:03:52.351Z,5.07
2023-04-15T13:06:22.971Z,2.13
2023-04-15T13:08:58.621Z,3.50
2023-04-15T13:11:34.073Z,6.30
2023-04-15T13:14:05.689Z,4.93
2023-04-15T13:16:36.579Z,2.90
2023-04-15T13:19:07.660Z,5.85
2023-04-15T13:21:37.940Z,2.60
2023-04-15T13:24:09.598Z,3.13
2023-04-15T13:26:42.906Z,3.65
2023-04-15T13:29:14.358Z,6.80
2023-04-15T13:31:44.767Z,4.55
2023-04-15T13:34:15.281Z,4.13
2023-04-15T13:36:46.228Z,3.88
2023-04-15T13:39:16.836Z,5.40
2023-04-15T13:41:54.698Z,5.97
2023-04-15T13:44:25.213Z,4.18
2023-04-15T13:46:55.998Z,3.95
2023-04-15T13:49:26.353Z,3.50
2023-04-15T13:51:56.638Z,1.88
2023-04-15T13:54:37.735Z,2.33
2023-04-15T13:57:11.421Z,2.65
2023-04-15T13:59:44.313Z,4.25
2023-04-15T14:02:14.937Z,4.20
2023-04-15T14:04:45.559Z,3.17
2023-04-15T14:07:16.220Z,2.80
2023-04-15T14:09:46.901Z,2.53
2023-04-15T14:12:19.812Z,3.97
2023-04-15T14:14:50.120Z,3.70
2023-04-15T14:17:20.555Z,3.30
2023-04-15T14:19:51.125Z,3.13
2023-04-15T14:22:21.528Z,4.25
2023-04-15T14:24:53.857Z,4.43
2023-04-15T14:27:29.056Z,4.00
2023-04-15T14:30:04.397Z,5.28
2023-04-15T14:32:35.035Z,5.85
2023-04-15T14:35:05.433Z,5.97
2023-04-15T14:37:36.279Z,3.92
2023-04-15T14:40:07.305Z,2.95
2023-04-15T14:42:40.300Z,3.60
2023-04-15T14:45:12.241Z,3.50
2023-04-15T14:47:42.804Z,4.30
2023-04-15T14:50:17.882Z,4.70
2023-04-15T14:52:48.410Z,2.70
2023-04-15T14:55:19.336Z,3.30
2023-04-15T14:57:52.332Z,2.70
2023-04-15T15:00:24.808Z,2.75
2023-04-15T15:02:55.132Z,2.85
2023-04-15T15:05:26.188Z,2.33
2023-04-15T15:07:56.742Z,3.83
2023-04-15T15:10:33.104Z,3.15
2023-04-15T15:13:21.045Z,4.10
2023-04-15T15:15:59.091Z,5.03
2023-04-15T15:18:30.181Z,3.53
2023-04-15T15:21:01.064Z,3.90
2023-04-15T15:23:32.191Z,2.92
2023-04-15T15:26:05.019Z,3.00
2023-04-15T15:28:37.915Z,2.90
2023-04-15T15:31:08.277Z,2.78
2023-04-15T15:33:41.311Z,2.13
2023-04-15T15:36:13.397Z,2.97
2023-04-15T15:38:44.401Z,3.47
2023-04-15T15:41:19.553Z,3.35
2023-04-15T15:43:52.622Z,4.65
2023-04-15T15:46:24.479Z,4.87
2023-04-15T15:48:54.870Z,3.83
2023-04-15T15:51:26.899Z,2.63
2023-04-15T15:53:57.213Z,3.92
2023-04-15T15:56:27.545Z,5.03
2023-04-15T15:59:00.522Z,5.90
2023-04-15T16:01:31.246Z,10.80
2023-04-15T16:04:03.061Z,7.07
2023-04-15T16:06:35.083Z,8.32
2023-04-15T16:09:05.962Z,6.43
2023-04-15T16:11:37.055Z,5.35
2023-04-15T16:14:10.001Z,4.05
2023-04-15T16:16:42.136Z,3.87
2023-04-15T16:19:12.483Z,4.32
2023-04-15T16:21:43.031Z,4.43
2023-04-15T16:24:13.329Z,4.10
2023-04-15T16:26:43.990Z,4.75
2023-04-15T16:29:16.897Z,7.22
2023-04-15T16:31:47.390Z,3.87
2023-04-15T16:34:18.835Z,4.03
2023-04-15T16:36:49.261Z,4.38
2023-04-15T16:39:21.021Z,4.80
2023-04-15T16:41:51.295Z,4.25
2023-04-15T16:44:24.284Z,7.40
2023-04-15T16:46:57.022Z,5.27
2023-04-15T16:49:27.388Z,6.25
2023-04-15T16:51:57.810Z,8.30
2023-04-15T16:54:29.366Z,5.60
2023-04-15T16:57:00.189Z,5.68
2023-04-15T16:59:33.006Z,4.18
2023-04-15T17:02:03.434Z,4.05
2023-04-15T17:04:36.851Z,5.47
2023-04-15T17:07:07.377Z,4.50
2023-04-15T17:09:37.737Z,5.57
2023-04-15T17:12:08.650Z,4.70
2023-04-15T17:14:41.723Z,5.75
2023-04-15T17:17:12.151Z,4.38
2023-04-15T17:19:49.796Z,3.80
2023-04-15T17:22:22.194Z,4.38
2023-04-15T17:24:52.496Z,9.05
2023-04-15T17:27:22.935Z,4.10
2023-04-15T17:29:55.849Z,3.80
2023-04-15T17:32:30.946Z,5.33
2023-04-15T17:35:01.321Z,4.38
2023-04-15T17:37:32.002Z,4.05
2023-04-15T17:40:02.257Z,4.93
2023-04-15T17:42:32.798Z,5.45
2023-04-15T17:45:06.142Z,4.88
2023-04-15T17:47:38.247Z,4.70
2023-04-15T17:50:10.161Z,5.50
2023-04-15T17:52:40.669Z,6.00
2023-04-15T17:55:11.674Z,4.88
2023-04-15T17:57:42.102Z,6.15
2023-04-15T18:00:17.727Z,4.93
2023-04-15T18:02:49.591Z,6.82
2023-04-15T18:05:20.419Z,5.47
2023-04-15T18:07:51.114Z,5.30
2023-04-15T18:10:21.777Z,5.88
2023-04-15T18:12:52.459Z,5.82
2023-04-15T18:15:25.291Z,6.13
2023-04-15T18:17:56.010Z,6.90
2023-04-15T18:20:26.814Z,5.95
2023-04-15T18:22:57.643Z,6.40
2023-04-15T18:25:27.890Z,6.53
2023-04-15T18:27:58.788Z,6.05
2023-04-15T18:30:31.621Z,7.18
2023-04-15T18:33:02.305Z,5.70
2023-04-15T18:35:32.804Z,5.60
2023-04-15T18:38:03.198Z,4.60
2023-04-15T18:40:33.627Z,5.55
2023-04-15T18:43:03.956Z,7.20
2023-04-15T18:45:37.437Z,7.10
2023-04-15T18:48:11.021Z,5.95
2023-04-15T18:53:14.824Z,7.22
2023-04-15T18:55:45.488Z,10.60
2023-04-15T18:58:16.186Z,7.90
2023-04-15T19:00:49.161Z,7.57
2023-04-15T19:03:19.573Z,6.60
2023-04-15T19:05:50.407Z,7.03
2023-04-15T19:08:20.882Z,8.18
2023-04-15T19:10:51.346Z,7.13
2023-04-15T19:13:22.888Z,8.68
2023-04-15T19:15:56.015Z,8.77
2023-04-15T19:18:26.782Z,7.55
2023-04-15T19:20:57.218Z,6.90
2023-04-15T19:23:30.176Z,8.98
2023-04-15T19:26:00.590Z,9.38
2023-04-15T19:28:31.179Z,8.60
2023-04-15T19:31:04.288Z,8.45
2023-04-15T19:33:34.960Z,6.45
2023-04-15T19:36:08.060Z,8.65
2023-04-15T19:38:38.695Z,9.48
2023-04-15T19:41:10.609Z,9.88
2023-04-15T19:43:40.838Z,10.30
2023-04-15T19:46:14.690Z,6.72
2023-04-15T19:48:45.350Z,7.05
2023-04-15T19:51:21.966Z,7.93
2023-04-15T19:53:54.135Z,11.68
2023-04-15T19:56:25.411Z,8.20
2023-04-15T19:59:00.135Z,9.63
2023-04-15T20:01:34.741Z,10.63
2023-04-15T20:04:05.347Z,8.60
2023-04-15T20:06:36.034Z,7.45
2023-04-15T20:09:10.330Z,8.60
2023-04-15T20:12:45.671Z,7.97
2023-04-15T20:14:33.233Z,9.40
2023-04-15T20:17:06.173Z,7.47
2023-04-15T20:19:36.645Z,9.00
2023-04-15T20:22:07.069Z,10.32
2023-04-15T20:24:37.338Z,6.90
2023-04-15T20:27:07.694Z,8.25
2023-04-15T20:29:38.065Z,8.85
2023-04-15T20:32:12.091Z,8.20
2023-04-15T20:34:43.051Z,10.30
2023-04-15T20:37:13.800Z,7.72
2023-04-15T20:39:44.297Z,8.93
2023-04-15T20:42:14.690Z,8.38
2023-04-15T20:44:44.939Z,7.63
2023-04-15T20:47:20.754Z,8.43
2023-04-15T20:49:51.268Z,6.97
2023-04-15T20:52:21.555Z,8.52
2023-04-15T20:54:54.952Z,8.15
2023-04-15T20:57:30.363Z,9.55
2023-04-15T21:00:00.731Z,9.02
2023-04-15T21:02:34.053Z,8.52
2023-04-15T21:05:04.474Z,9.07
2023-04-15T21:07:35.917Z,8.90
2023-04-15T21:10:06.650Z,10.82
2023-04-15T21:12:37.699Z,13.70
2023-04-15T21:15:09.078Z,9.07
2023-04-15T21:17:43.299Z,9.88
2023-04-15T21:20:15.038Z,12.40
2023-04-15T21:22:45.486Z,10.38
2023-04-15T21:25:18.110Z,10.13
2023-04-15T21:27:48.666Z,13.07
2023-04-15T21:30:21.124Z,13.00
2023-04-15T21:32:55.927Z,12.55
2023-04-15T21:35:26.397Z,11.38
2023-04-15T21:37:56.886Z,13.73
2023-04-15T21:40:27.123Z,11.57
2023-04-15T21:42:57.485Z,10.27
2023-04-15T21:45:27.809Z,11.52
2023-04-15T21:48:08.404Z,12.55
2023-04-15T21:50:39.335Z,10.32
2023-04-15T21:53:10.846Z,10.70
2023-04-15T21:55:41.294Z,10.40
2023-04-15T21:58:11.707Z,8.77
2023-04-15T22:00:42.187Z,9.43
2023-04-15T22:03:15.375Z,9.93
2023-04-15T22:05:48.659Z,8.13
2023-04-15T22:08:19.516Z,10.60
2023-04-15T22:10:49.761Z,9.93
2023-04-15T22:13:20.279Z,9.82
2023-04-15T22:15:50.586Z,10.35
2023-04-15T22:18:23.980Z,9.57
2023-04-15T22:20:54.288Z,9.13
2023-04-15T22:23:24.635Z,10.30
2023-04-15T22:25:54.905Z,8.40
2023-04-15T22:28:25.211Z,9.93
2023-04-15T22:30:58.238Z,9.77
2023-04-15T22:33:31.148Z,12.83
2023-04-15T22:36:01.416Z,9.20
2023-04-15T22:38:34.283Z,10.52
2023-04-15T22:41:04.737Z,8.85
2023-04-15T22:43:35.111Z,9.27
2023-04-15T22:46:05.507Z,8.90
2023-04-15T22:48:38.430Z,8.13
2023-04-15T22:51:08.910Z,10.25
2023-04-15T22:53:39.186Z,7.65
2023-04-15T22:56:10.083Z,7.55
2023-04-15T22:58:40.423Z,7.97
2023-04-15T23:01:11.510Z,7.65
2023-04-15T23:03:57.413Z,8.60
2023-04-15T23:06:34.765Z,7.53
2023-04-15T23:09:05.265Z,8.10
2023-04-15T23:11:35.845Z,6.20
2023-04-15T23:14:06.145Z,7.30
2023-04-15T23:16:36.718Z,6.80
2023-04-15T23:19:09.883Z,6.93
2023-04-15T23:21:40.642Z,9.18
2023-04-15T23:24:11.056Z,7.35
2023-04-15T23:26:41.530Z,8.95
2023-04-15T23:29:12.035Z,7.63
2023-04-15T23:31:43.708Z,6.80
2023-04-15T23:34:16.686Z,7.90
2023-04-15T23:36:47.109Z,8.07
2023-04-15T23:39:17.414Z,6.40
2023-04-15T23:41:47.832Z,7.65
2023-04-15T23:44:21.680Z,6.65
2023-04-15T23:46:52.070Z,8.00
2023-04-15T23:49:25.048Z,7.68
2023-04-15T23:51:55.356Z,7.70
2023-04-15T23:54:25.771Z,7.20
2023-04-15T23:56:55.951Z,7.25
2023-04-15T23:59:28.790Z,7.60
